sensor_id;sensor_type;location;lat;lon;timestamp;P1;durP1;ratioP1;P2;durP2;ratioP2
146;SDS011;45999;48.808;9.182;2022-07-23T00:01:27;4.40;;;3.83;;
146;SDS011;45999;48.808;9.182;2022-07-23T00:03:55;4.45;;;3.90;;
146;SDS011;45999;48.808;9.182;2022-07-23T00:06:22;4.72;;;4.32;;
146;SDS011;45999;48.808;9.182;2022-07-23T00:08:50;3.92;;;3.67;;
146;SDS011;45999;48.808;9.182;2022-07-23T00:11:17;3.88;;;3.58;;
146;SDS011;45999;48.808;9.182;2022-07-23T00:13:43;4.20;;;3.80;;
146;SDS011;45999;48.808;9.182;2022-07-23T00:16:10;3.95;;;3.65;;
146;SDS011;45999;48.808;9.182;2022-07-23T00:18:36;4.35;;;3.85;;
146;SDS011;45999;48.808;9.182;2022-07-23T00:21:03;4.07;;;3.78;;
146;SDS011;45999;48.808;9.182;2022-07-23T00:23:30;4.00;;;3.60;;
146;SDS011;45999;48.808;9.182;2022-07-23T00:25:56;4.40;;;4.00;;
146;SDS011;45999;48.808;9.182;2022-07-23T00:28:23;4.28;;;3.72;;
146;SDS011;45999;48.808;9.182;2022-07-23T00:30:49;4.20;;;3.80;;
146;SDS011;45999;48.808;9.182;2022-07-23T00:33:16;4.10;;;3.75;;
146;SDS011;45999;48.808;9.182;2022-07-23T00:35:42;3.80;;;3.50;;
146;SDS011;45999;48.808;9.182;2022-07-23T00:38:09;4.22;;;3.80;;
146;SDS011;45999;48.808;9.182;2022-07-23T00:40:37;3.90;;;3.60;;
146;SDS011;45999;48.808;9.182;2022-07-23T00:43:04;3.85;;;3.55;;
146;SDS011;45999;48.808;9.182;2022-07-23T00:45:30;4.20;;;3.75;;
146;SDS011;45999;48.808;9.182;2022-07-23T00:47:58;3.72;;;3.42;;
146;SDS011;45999;48.808;9.182;2022-07-23T00:50:24;5.03;;;3.75;;
146;SDS011;45999;48.808;9.182;2022-07-23T00:52:51;4.25;;;3.90;;
146;SDS011;45999;48.808;9.182;2022-07-23T00:55:18;4.50;;;4.10;;
146;SDS011;45999;48.808;9.182;2022-07-23T00:57:45;4.13;;;3.63;;
146;SDS011;45999;48.808;9.182;2022-07-23T01:00:12;4.05;;;3.65;;
146;SDS011;45999;48.808;9.182;2022-07-23T01:02:40;4.13;;;3.70;;
146;SDS011;45999;48.808;9.182;2022-07-23T01:05:07;4.78;;;3.42;;
146;SDS011;45999;48.808;9.182;2022-07-23T01:07:34;4.88;;;3.85;;
146;SDS011;45999;48.808;9.182;2022-07-23T01:10:02;4.07;;;3.78;;
146;SDS011;45999;48.808;9.182;2022-07-23T01:12:29;3.83;;;3.63;;
146;SDS011;45999;48.808;9.182;2022-07-23T01:17:23;4.20;;;3.80;;
146;SDS011;45999;48.808;9.182;2022-07-23T01:19:50;4.07;;;3.63;;
146;SDS011;45999;48.808;9.182;2022-07-23T01:22:19;3.55;;;3.35;;
146;SDS011;45999;48.808;9.182;2022-07-23T01:24:46;4.45;;;3.92;;
146;SDS011;45999;48.808;9.182;2022-07-23T01:27:13;4.10;;;3.80;;
146;SDS011;45999;48.808;9.182;2022-07-23T01:29:39;3.90;;;3.70;;
146;SDS011;45999;48.808;9.182;2022-07-23T01:32:06;3.97;;;3.67;;
146;SDS011;45999;48.808;9.182;2022-07-23T01:34:32;3.63;;;3.33;;
146;SDS011;45999;48.808;9.182;2022-07-23T01:36:58;3.90;;;3.60;;
146;SDS011;45999;48.808;9.182;2022-07-23T01:39:25;4.00;;;3.70;;
146;SDS011;45999;48.808;9.182;2022-07-23T01:41:51;3.55;;;3.33;;
146;SDS011;45999;48.808;9.182;2022-07-23T01:44:18;4.05;;;3.65;;
146;SDS011;45999;48.808;9.182;2022-07-23T01:46:44;3.80;;;3.50;;
146;SDS011;45999;48.808;9.182;2022-07-23T01:49:10;3.78;;;3.58;;
146;SDS011;45999;48.808;9.182;2022-07-23T01:51:37;5.50;;;3.42;;
146;SDS011;45999;48.808;9.182;2022-07-23T01:54:23;4.22;;;3.70;;
146;SDS011;45999;48.808;9.182;2022-07-23T01:56:50;3.78;;;3.47;;
146;SDS011;45999;48.808;9.182;2022-07-23T01:59:16;5.70;;;4.18;;
146;SDS011;45999;48.808;9.182;2022-07-23T02:01:42;4.07;;;3.70;;
146;SDS011;45999;48.808;9.182;2022-07-23T02:04:09;4.00;;;3.70;;
146;SDS011;45999;48.808;9.182;2022-07-23T02:06:35;3.60;;;3.40;;
146;SDS011;45999;48.808;9.182;2022-07-23T02:09:02;3.83;;;3.53;;
146;SDS011;45999;48.808;9.182;2022-07-23T02:11:28;3.85;;;3.55;;
146;SDS011;45999;48.808;9.182;2022-07-23T02:13:55;3.92;;;3.63;;
146;SDS011;45999;48.808;9.182;2022-07-23T02:16:21;4.43;;;3.92;;
146;SDS011;45999;48.808;9.182;2022-07-23T02:18:47;4.20;;;3.90;;
146;SDS011;45999;48.808;9.182;2022-07-23T02:21:14;4.50;;;4.10;;
146;SDS011;45999;48.808;9.182;2022-07-23T02:23:40;4.60;;;4.20;;
146;SDS011;45999;48.808;9.182;2022-07-23T02:26:07;4.10;;;3.80;;
146;SDS011;45999;48.808;9.182;2022-07-23T02:28:33;3.92;;;3.60;;
146;SDS011;45999;48.808;9.182;2022-07-23T02:31:00;4.18;;;3.88;;
146;SDS011;45999;48.808;9.182;2022-07-23T02:33:26;3.83;;;3.50;;
146;SDS011;45999;48.808;9.182;2022-07-23T02:35:52;4.10;;;3.80;;
146;SDS011;45999;48.808;9.182;2022-07-23T02:38:19;4.00;;;3.70;;
146;SDS011;45999;48.808;9.182;2022-07-23T02:40:45;4.20;;;3.75;;
146;SDS011;45999;48.808;9.182;2022-07-23T02:43:12;4.68;;;4.30;;
146;SDS011;45999;48.808;9.182;2022-07-23T02:45:38;4.28;;;3.97;;
146;SDS011;45999;48.808;9.182;2022-07-23T02:48:05;5.47;;;3.97;;
146;SDS011;45999;48.808;9.182;2022-07-23T02:50:31;4.13;;;3.83;;
146;SDS011;45999;48.808;9.182;2022-07-23T02:52:58;4.50;;;4.10;;
146;SDS011;45999;48.808;9.182;2022-07-23T02:55:24;4.38;;;4.07;;
146;SDS011;45999;48.808;9.182;2022-07-23T02:57:51;4.67;;;4.27;;
146;SDS011;45999;48.808;9.182;2022-07-23T03:00:17;3.97;;;3.67;;
146;SDS011;45999;48.808;9.182;2022-07-23T03:02:43;5.77;;;4.00;;
146;SDS011;45999;48.808;9.182;2022-07-23T03:05:10;4.50;;;4.10;;
146;SDS011;45999;48.808;9.182;2022-07-23T03:07:36;4.53;;;4.13;;
146;SDS011;45999;48.808;9.182;2022-07-23T03:10:03;4.07;;;3.80;;
146;SDS011;45999;48.808;9.182;2022-07-23T03:12:29;4.10;;;3.80;;
146;SDS011;45999;48.808;9.182;2022-07-23T03:14:56;4.78;;;3.70;;
146;SDS011;45999;48.808;9.182;2022-07-23T03:17:23;4.18;;;3.78;;
146;SDS011;45999;48.808;9.182;2022-07-23T03:19:50;5.10;;;4.03;;
146;SDS011;45999;48.808;9.182;2022-07-23T03:22:16;4.17;;;3.87;;
146;SDS011;45999;48.808;9.182;2022-07-23T03:24:42;3.97;;;3.67;;
146;SDS011;45999;48.808;9.182;2022-07-23T03:27:24;4.00;;;3.70;;
146;SDS011;45999;48.808;9.182;2022-07-23T03:29:54;4.43;;;3.77;;
146;SDS011;45999;48.808;9.182;2022-07-23T03:32:22;4.30;;;4.00;;
146;SDS011;45999;48.808;9.182;2022-07-23T03:34:49;4.23;;;3.83;;
146;SDS011;45999;48.808;9.182;2022-07-23T03:37:16;4.30;;;3.97;;
146;SDS011;45999;48.808;9.182;2022-07-23T03:39:43;4.40;;;4.10;;
146;SDS011;45999;48.808;9.182;2022-07-23T03:42:09;4.30;;;4.00;;
146;SDS011;45999;48.808;9.182;2022-07-23T03:44:36;4.80;;;4.13;;
146;SDS011;45999;48.808;9.182;2022-07-23T03:47:03;4.70;;;4.27;;
146;SDS011;45999;48.808;9.182;2022-07-23T03:49:30;4.03;;;3.67;;
146;SDS011;45999;48.808;9.182;2022-07-23T03:51:57;4.30;;;3.90;;
146;SDS011;45999;48.808;9.182;2022-07-23T03:54:23;4.47;;;4.17;;
146;SDS011;45999;48.808;9.182;2022-07-23T03:56:50;4.60;;;4.30;;
146;SDS011;45999;48.808;9.182;2022-07-23T03:59:16;4.30;;;3.90;;
146;SDS011;45999;48.808;9.182;2022-07-23T04:01:43;4.77;;;4.20;;
146;SDS011;45999;48.808;9.182;2022-07-23T04:04:09;4.07;;;3.77;;
146;SDS011;45999;48.808;9.182;2022-07-23T04:06:36;4.30;;;3.93;;
146;SDS011;45999;48.808;9.182;2022-07-23T04:09:02;4.27;;;3.87;;
146;SDS011;45999;48.808;9.182;2022-07-23T04:11:29;4.70;;;4.10;;
146;SDS011;45999;48.808;9.182;2022-07-23T04:13:55;4.60;;;4.20;;
146;SDS011;45999;48.808;9.182;2022-07-23T04:16:22;4.57;;;4.20;;
146;SDS011;45999;48.808;9.182;2022-07-23T04:18:48;5.30;;;4.20;;
146;SDS011;45999;48.808;9.182;2022-07-23T04:21:15;4.80;;;4.03;;
146;SDS011;45999;48.808;9.182;2022-07-23T04:23:41;4.93;;;4.37;;
146;SDS011;45999;48.808;9.182;2022-07-23T04:26:07;4.23;;;3.87;;
146;SDS011;45999;48.808;9.182;2022-07-23T04:28:34;4.90;;;4.40;;
146;SDS011;45999;48.808;9.182;2022-07-23T04:31:00;4.33;;;4.07;;
146;SDS011;45999;48.808;9.182;2022-07-23T04:33:27;4.27;;;3.87;;
146;SDS011;45999;48.808;9.182;2022-07-23T04:35:53;4.43;;;3.80;;
146;SDS011;45999;48.808;9.182;2022-07-23T04:38:19;4.00;;;3.60;;
146;SDS011;45999;48.808;9.182;2022-07-23T04:40:46;4.45;;;4.10;;
146;SDS011;45999;48.808;9.182;2022-07-23T04:43:12;4.93;;;4.53;;
146;SDS011;45999;48.808;9.182;2022-07-23T04:45:39;5.60;;;4.80;;
146;SDS011;45999;48.808;9.182;2022-07-23T04:48:06;4.40;;;4.00;;
146;SDS011;45999;48.808;9.182;2022-07-23T04:50:32;4.70;;;4.30;;
146;SDS011;45999;48.808;9.182;2022-07-23T04:52:59;4.63;;;4.22;;
146;SDS011;45999;48.808;9.182;2022-07-23T04:55:25;4.47;;;4.07;;
146;SDS011;45999;48.808;9.182;2022-07-23T04:57:52;5.90;;;4.50;;
146;SDS011;45999;48.808;9.182;2022-07-23T05:00:18;4.28;;;3.97;;
146;SDS011;45999;48.808;9.182;2022-07-23T05:02:45;4.63;;;4.22;;
146;SDS011;45999;48.808;9.182;2022-07-23T05:05:11;4.95;;;4.43;;
146;SDS011;45999;48.808;9.182;2022-07-23T05:07:37;4.72;;;4.32;;
146;SDS011;45999;48.808;9.182;2022-07-23T05:10:04;5.32;;;4.30;;
146;SDS011;45999;48.808;9.182;2022-07-23T05:12:31;6.65;;;4.68;;
146;SDS011;45999;48.808;9.182;2022-07-23T05:14:57;4.88;;;4.22;;
146;SDS011;45999;48.808;9.182;2022-07-23T05:17:24;4.60;;;4.20;;
146;SDS011;45999;48.808;9.182;2022-07-23T05:19:51;4.93;;;4.53;;
146;SDS011;45999;48.808;9.182;2022-07-23T05:22:17;4.65;;;4.25;;
146;SDS011;45999;48.808;9.182;2022-07-23T05:24:44;4.68;;;4.28;;
146;SDS011;45999;48.808;9.182;2022-07-23T05:27:10;4.20;;;3.90;;
146;SDS011;45999;48.808;9.182;2022-07-23T05:29:36;4.68;;;4.28;;
146;SDS011;45999;48.808;9.182;2022-07-23T05:32:03;4.63;;;4.22;;
146;SDS011;45999;48.808;9.182;2022-07-23T05:34:29;4.78;;;4.38;;
146;SDS011;45999;48.808;9.182;2022-07-23T05:36:56;5.65;;;4.57;;
146;SDS011;45999;48.808;9.182;2022-07-23T05:39:22;4.50;;;4.10;;
146;SDS011;45999;48.808;9.182;2022-07-23T05:41:49;5.32;;;4.78;;
146;SDS011;45999;48.808;9.182;2022-07-23T05:44:15;4.60;;;4.20;;
146;SDS011;45999;48.808;9.182;2022-07-23T05:46:41;4.90;;;4.40;;
146;SDS011;45999;48.808;9.182;2022-07-23T05:49:08;4.30;;;4.00;;
146;SDS011;45999;48.808;9.182;2022-07-23T05:51:34;4.72;;;4.38;;
146;SDS011;45999;48.808;9.182;2022-07-23T05:54:01;4.97;;;4.18;;
146;SDS011;45999;48.808;9.182;2022-07-23T05:56:27;4.80;;;4.43;;
146;SDS011;45999;48.808;9.182;2022-07-23T05:58:54;5.20;;;4.70;;
146;SDS011;45999;48.808;9.182;2022-07-23T06:01:20;5.03;;;4.47;;
146;SDS011;45999;48.808;9.182;2022-07-23T06:03:46;4.47;;;4.00;;
146;SDS011;45999;48.808;9.182;2022-07-23T06:06:13;5.10;;;4.70;;
146;SDS011;45999;48.808;9.182;2022-07-23T06:08:39;4.35;;;4.05;;
146;SDS011;45999;48.808;9.182;2022-07-23T06:11:05;5.07;;;4.70;;
146;SDS011;45999;48.808;9.182;2022-07-23T06:13:32;4.53;;;4.13;;
146;SDS011;45999;48.808;9.182;2022-07-23T06:15:58;5.20;;;4.75;;
146;SDS011;45999;48.808;9.182;2022-07-23T06:18:25;5.22;;;4.72;;
146;SDS011;45999;48.808;9.182;2022-07-23T06:20:51;5.22;;;4.82;;
146;SDS011;45999;48.808;9.182;2022-07-23T06:23:17;4.40;;;4.10;;
146;SDS011;45999;48.808;9.182;2022-07-23T06:25:44;4.88;;;4.47;;
146;SDS011;45999;48.808;9.182;2022-07-23T06:28:10;4.72;;;4.32;;
146;SDS011;45999;48.808;9.182;2022-07-23T06:30:37;5.05;;;4.65;;
146;SDS011;45999;48.808;9.182;2022-07-23T06:33:03;4.95;;;4.40;;
146;SDS011;45999;48.808;9.182;2022-07-23T06:35:30;5.15;;;4.70;;
146;SDS011;45999;48.808;9.182;2022-07-23T06:37:58;4.93;;;4.50;;
146;SDS011;45999;48.808;9.182;2022-07-23T06:40:25;5.22;;;4.72;;
146;SDS011;45999;48.808;9.182;2022-07-23T06:42:51;5.63;;;5.00;;
146;SDS011;45999;48.808;9.182;2022-07-23T06:45:18;5.78;;;5.05;;
146;SDS011;45999;48.808;9.182;2022-07-23T06:47:44;5.15;;;4.75;;
146;SDS011;45999;48.808;9.182;2022-07-23T06:50:10;5.18;;;4.68;;
146;SDS011;45999;48.808;9.182;2022-07-23T06:52:37;5.07;;;4.68;;
146;SDS011;45999;48.808;9.182;2022-07-23T06:55:03;5.65;;;5.13;;
146;SDS011;45999;48.808;9.182;2022-07-23T06:57:30;5.60;;;5.10;;
146;SDS011;45999;48.808;9.182;2022-07-23T06:59:57;5.28;;;4.88;;
146;SDS011;45999;48.808;9.182;2022-07-23T07:02:23;5.50;;;4.97;;
146;SDS011;45999;48.808;9.182;2022-07-23T07:04:49;6.60;;;5.17;;
146;SDS011;45999;48.808;9.182;2022-07-23T07:07:17;5.70;;;4.80;;
146;SDS011;45999;48.808;9.182;2022-07-23T07:09:43;6.13;;;5.53;;
146;SDS011;45999;48.808;9.182;2022-07-23T07:12:10;7.03;;;5.47;;
146;SDS011;45999;48.808;9.182;2022-07-23T07:14:37;7.43;;;5.90;;
146;SDS011;45999;48.808;9.182;2022-07-23T07:17:03;6.70;;;5.13;;
146;SDS011;45999;48.808;9.182;2022-07-23T07:19:29;5.63;;;5.13;;
146;SDS011;45999;48.808;9.182;2022-07-23T07:21:56;5.23;;;4.83;;
146;SDS011;45999;48.808;9.182;2022-07-23T07:24:22;5.80;;;5.30;;
146;SDS011;45999;48.808;9.182;2022-07-23T07:26:49;6.30;;;5.10;;
146;SDS011;45999;48.808;9.182;2022-07-23T07:29:15;5.67;;;5.27;;
146;SDS011;45999;48.808;9.182;2022-07-23T07:31:41;7.07;;;5.30;;
146;SDS011;45999;48.808;9.182;2022-07-23T07:34:08;6.27;;;5.67;;
146;SDS011;45999;48.808;9.182;2022-07-23T07:36:34;6.07;;;4.97;;
146;SDS011;45999;48.808;9.182;2022-07-23T07:39:02;6.43;;;5.80;;
146;SDS011;45999;48.808;9.182;2022-07-23T07:41:30;7.00;;;5.90;;
146;SDS011;45999;48.808;9.182;2022-07-23T07:43:57;8.07;;;6.00;;
146;SDS011;45999;48.808;9.182;2022-07-23T07:46:23;6.57;;;5.97;;
146;SDS011;45999;48.808;9.182;2022-07-23T07:48:52;5.57;;;5.07;;
146;SDS011;45999;48.808;9.182;2022-07-23T07:51:19;5.37;;;4.87;;
146;SDS011;45999;48.808;9.182;2022-07-23T07:53:45;5.30;;;4.90;;
146;SDS011;45999;48.808;9.182;2022-07-23T07:56:12;6.13;;;5.60;;
146;SDS011;45999;48.808;9.182;2022-07-23T07:58:38;5.80;;;5.30;;
146;SDS011;45999;48.808;9.182;2022-07-23T08:01:04;5.70;;;5.20;;
146;SDS011;45999;48.808;9.182;2022-07-23T08:03:31;5.60;;;5.10;;
146;SDS011;45999;48.808;9.182;2022-07-23T08:05:57;5.67;;;5.07;;
146;SDS011;45999;48.808;9.182;2022-07-23T08:08:24;5.03;;;4.63;;
146;SDS011;45999;48.808;9.182;2022-07-23T08:10:51;5.70;;;5.20;;
146;SDS011;45999;48.808;9.182;2022-07-23T08:13:17;5.67;;;5.17;;
146;SDS011;45999;48.808;9.182;2022-07-23T08:15:43;6.03;;;5.40;;
146;SDS011;45999;48.808;9.182;2022-07-23T08:18:10;6.00;;;5.50;;
146;SDS011;45999;48.808;9.182;2022-07-23T08:20:36;5.77;;;5.23;;
146;SDS011;45999;48.808;9.182;2022-07-23T08:23:04;5.90;;;5.40;;
146;SDS011;45999;48.808;9.182;2022-07-23T08:25:33;5.20;;;4.80;;
146;SDS011;45999;48.808;9.182;2022-07-23T08:28:05;6.10;;;5.60;;
146;SDS011;45999;48.808;9.182;2022-07-23T08:30:32;5.23;;;4.83;;
146;SDS011;45999;48.808;9.182;2022-07-23T08:35:31;5.43;;;5.00;;
146;SDS011;45999;48.808;9.182;2022-07-23T08:38:00;5.30;;;4.80;;
146;SDS011;45999;48.808;9.182;2022-07-23T08:40:29;5.50;;;5.00;;
146;SDS011;45999;48.808;9.182;2022-07-23T08:43:09;5.00;;;4.60;;
146;SDS011;45999;48.808;9.182;2022-07-23T08:45:43;5.10;;;4.68;;
146;SDS011;45999;48.808;9.182;2022-07-23T08:48:13;5.93;;;5.35;;
146;SDS011;45999;48.808;9.182;2022-07-23T08:50:42;5.03;;;4.63;;
146;SDS011;45999;48.808;9.182;2022-07-23T08:53:10;5.25;;;4.85;;
146;SDS011;45999;48.808;9.182;2022-07-23T08:55:36;5.00;;;4.60;;
146;SDS011;45999;48.808;9.182;2022-07-23T08:58:03;5.10;;;4.70;;
146;SDS011;45999;48.808;9.182;2022-07-23T09:00:30;4.72;;;4.35;;
146;SDS011;45999;48.808;9.182;2022-07-23T09:02:56;5.60;;;4.78;;
146;SDS011;45999;48.808;9.182;2022-07-23T09:05:23;5.00;;;4.60;;
146;SDS011;45999;48.808;9.182;2022-07-23T09:10:57;4.97;;;4.57;;
146;SDS011;45999;48.808;9.182;2022-07-23T09:13:41;5.45;;;5.00;;
146;SDS011;45999;48.808;9.182;2022-07-23T09:16:19;5.13;;;4.68;;
146;SDS011;45999;48.808;9.182;2022-07-23T09:18:56;5.38;;;4.88;;
146;SDS011;45999;48.808;9.182;2022-07-23T09:21:25;5.10;;;4.65;;
146;SDS011;45999;48.808;9.182;2022-07-23T09:24:05;4.85;;;4.53;;
146;SDS011;45999;48.808;9.182;2022-07-23T09:34:09;5.25;;;4.78;;
146;SDS011;45999;48.808;9.182;2022-07-23T09:36:40;5.72;;;5.25;;
146;SDS011;45999;48.808;9.182;2022-07-23T09:39:07;7.03;;;5.20;;
146;SDS011;45999;48.808;9.182;2022-07-23T09:41:35;5.72;;;5.20;;
146;SDS011;45999;48.808;9.182;2022-07-23T09:46:41;5.22;;;4.68;;
146;SDS011;45999;48.808;9.182;2022-07-23T09:49:18;4.95;;;4.53;;
146;SDS011;45999;48.808;9.182;2022-07-23T09:51:54;5.55;;;5.05;;
146;SDS011;45999;48.808;9.182;2022-07-23T09:57:01;4.82;;;4.43;;
146;SDS011;45999;48.808;9.182;2022-07-23T09:59:31;4.80;;;4.40;;
146;SDS011;45999;48.808;9.182;2022-07-23T10:01:59;4.97;;;4.57;;
146;SDS011;45999;48.808;9.182;2022-07-23T10:04:27;5.20;;;4.70;;
146;SDS011;45999;48.808;9.182;2022-07-23T10:06:56;4.93;;;4.50;;
146;SDS011;45999;48.808;9.182;2022-07-23T10:09:26;4.60;;;4.30;;
146;SDS011;45999;48.808;9.182;2022-07-23T10:11:56;5.95;;;5.32;;
146;SDS011;45999;48.808;9.182;2022-07-23T10:14:40;5.10;;;4.70;;
146;SDS011;45999;48.808;9.182;2022-07-23T10:17:07;4.53;;;4.20;;
146;SDS011;45999;48.808;9.182;2022-07-23T10:19:34;5.18;;;4.80;;
146;SDS011;45999;48.808;9.182;2022-07-23T10:30:39;4.70;;;4.40;;
146;SDS011;45999;48.808;9.182;2022-07-23T10:36:08;5.47;;;5.07;;
146;SDS011;45999;48.808;9.182;2022-07-23T10:38:51;4.88;;;4.57;;
146;SDS011;45999;48.808;9.182;2022-07-23T10:41:31;5.10;;;4.70;;
146;SDS011;45999;48.808;9.182;2022-07-23T10:44:06;4.78;;;4.32;;
146;SDS011;45999;48.808;9.182;2022-07-23T10:46:34;5.10;;;4.70;;
146;SDS011;45999;48.808;9.182;2022-07-23T10:49:21;4.97;;;4.57;;
146;SDS011;45999;48.808;9.182;2022-07-23T10:54:40;4.65;;;4.22;;
146;SDS011;45999;48.808;9.182;2022-07-23T10:57:11;4.72;;;4.32;;
146;SDS011;45999;48.808;9.182;2022-07-23T11:02:29;4.45;;;4.05;;
146;SDS011;45999;48.808;9.182;2022-07-23T11:05:00;4.72;;;4.32;;
146;SDS011;45999;48.808;9.182;2022-07-23T11:07:30;4.80;;;4.50;;
146;SDS011;45999;48.808;9.182;2022-07-23T11:09:56;5.28;;;4.78;;
146;SDS011;45999;48.808;9.182;2022-07-23T11:15:05;5.18;;;4.68;;
146;SDS011;45999;48.808;9.182;2022-07-23T11:17:38;4.90;;;4.50;;
146;SDS011;45999;48.808;9.182;2022-07-23T11:20:18;5.03;;;4.63;;
146;SDS011;45999;48.808;9.182;2022-07-23T11:22:47;4.80;;;4.40;;
146;SDS011;45999;48.808;9.182;2022-07-23T11:27:48;5.10;;;4.70;;
146;SDS011;45999;48.808;9.182;2022-07-23T11:30:37;5.40;;;4.80;;
146;SDS011;45999;48.808;9.182;2022-07-23T11:35:33;4.82;;;4.50;;
146;SDS011;45999;48.808;9.182;2022-07-23T11:38:06;4.80;;;4.50;;
146;SDS011;45999;48.808;9.182;2022-07-23T11:40:34;5.05;;;4.65;;
146;SDS011;45999;48.808;9.182;2022-07-23T11:43:02;4.90;;;4.50;;
146;SDS011;45999;48.808;9.182;2022-07-23T11:45:41;5.78;;;4.78;;
146;SDS011;45999;48.808;9.182;2022-07-23T11:48:15;5.00;;;4.50;;
146;SDS011;45999;48.808;9.182;2022-07-23T11:50:49;5.38;;;4.93;;
146;SDS011;45999;48.808;9.182;2022-07-23T11:53:27;4.85;;;4.50;;
146;SDS011;45999;48.808;9.182;2022-07-23T11:56:02;5.00;;;4.60;;
146;SDS011;45999;48.808;9.182;2022-07-23T11:58:38;5.55;;;5.03;;
146;SDS011;45999;48.808;9.182;2022-07-23T12:01:05;5.30;;;4.85;;
146;SDS011;45999;48.808;9.182;2022-07-23T12:03:32;4.88;;;4.53;;
146;SDS011;45999;48.808;9.182;2022-07-23T12:05:59;5.40;;;4.90;;
146;SDS011;45999;48.808;9.182;2022-07-23T12:08:26;5.65;;;5.15;;
146;SDS011;45999;48.808;9.182;2022-07-23T12:10:53;5.82;;;5.32;;
146;SDS011;45999;48.808;9.182;2022-07-23T12:13:20;5.90;;;5.40;;
146;SDS011;45999;48.808;9.182;2022-07-23T12:15:49;5.72;;;5.22;;
146;SDS011;45999;48.808;9.182;2022-07-23T12:18:23;5.35;;;4.95;;
146;SDS011;45999;48.808;9.182;2022-07-23T12:20:52;5.28;;;4.88;;
146;SDS011;45999;48.808;9.182;2022-07-23T12:23:21;5.32;;;4.82;;
146;SDS011;45999;48.808;9.182;2022-07-23T12:25:49;4.90;;;4.38;;
146;SDS011;45999;48.808;9.182;2022-07-23T12:30:51;5.80;;;5.30;;
146;SDS011;45999;48.808;9.182;2022-07-23T12:33:22;5.32;;;4.90;;
146;SDS011;45999;48.808;9.182;2022-07-23T12:35:52;5.72;;;5.22;;
146;SDS011;45999;48.808;9.182;2022-07-23T12:38:21;6.18;;;5.00;;
146;SDS011;45999;48.808;9.182;2022-07-23T12:46:09;5.38;;;4.97;;
146;SDS011;45999;48.808;9.182;2022-07-23T12:51:31;5.20;;;4.80;;
146;SDS011;45999;48.808;9.182;2022-07-23T12:53:58;5.75;;;5.35;;
146;SDS011;45999;48.808;9.182;2022-07-23T12:56:34;5.63;;;5.22;;
146;SDS011;45999;48.808;9.182;2022-07-23T12:59:09;5.57;;;5.18;;
146;SDS011;45999;48.808;9.182;2022-07-23T13:01:39;5.28;;;4.90;;
146;SDS011;45999;48.808;9.182;2022-07-23T13:04:08;5.40;;;5.00;;
146;SDS011;45999;48.808;9.182;2022-07-23T13:06:42;6.18;;;5.60;;
146;SDS011;45999;48.808;9.182;2022-07-23T13:09:21;5.60;;;5.07;;
146;SDS011;45999;48.808;9.182;2022-07-23T13:11:49;4.95;;;4.60;;
146;SDS011;45999;48.808;9.182;2022-07-23T13:14:17;5.88;;;4.78;;
146;SDS011;45999;48.808;9.182;2022-07-23T13:16:44;6.03;;;5.53;;
146;SDS011;45999;48.808;9.182;2022-07-23T13:19:11;5.78;;;5.22;;
146;SDS011;45999;48.808;9.182;2022-07-23T13:21:39;5.70;;;5.20;;
146;SDS011;45999;48.808;9.182;2022-07-23T13:24:06;5.40;;;5.00;;
146;SDS011;45999;48.808;9.182;2022-07-23T13:26:34;6.40;;;5.13;;
146;SDS011;45999;48.808;9.182;2022-07-23T13:29:01;5.47;;;4.97;;
146;SDS011;45999;48.808;9.182;2022-07-23T13:31:28;6.22;;;5.60;;
146;SDS011;45999;48.808;9.182;2022-07-23T13:33:54;5.60;;;5.10;;
146;SDS011;45999;48.808;9.182;2022-07-23T13:36:21;5.95;;;5.38;;
146;SDS011;45999;48.808;9.182;2022-07-23T13:38:47;6.75;;;5.35;;
146;SDS011;45999;48.808;9.182;2022-07-23T13:41:13;5.90;;;5.47;;
146;SDS011;45999;48.808;9.182;2022-07-23T13:43:43;5.25;;;4.93;;
146;SDS011;45999;48.808;9.182;2022-07-23T13:46:09;5.88;;;5.38;;
146;SDS011;45999;48.808;9.182;2022-07-23T13:48:36;6.00;;;5.43;;
146;SDS011;45999;48.808;9.182;2022-07-23T13:51:02;6.50;;;5.80;;
146;SDS011;45999;48.808;9.182;2022-07-23T13:53:29;6.00;;;5.50;;
146;SDS011;45999;48.808;9.182;2022-07-23T13:55:55;6.35;;;5.88;;
146;SDS011;45999;48.808;9.182;2022-07-23T13:58:22;6.82;;;6.07;;
146;SDS011;45999;48.808;9.182;2022-07-23T14:00:51;6.97;;;6.38;;
146;SDS011;45999;48.808;9.182;2022-07-23T14:03:19;6.95;;;6.35;;
146;SDS011;45999;48.808;9.182;2022-07-23T14:05:47;6.65;;;6.00;;
146;SDS011;45999;48.808;9.182;2022-07-23T14:08:14;6.43;;;5.82;;
146;SDS011;45999;48.808;9.182;2022-07-23T14:10:40;6.00;;;5.50;;
146;SDS011;45999;48.808;9.182;2022-07-23T14:13:07;6.07;;;5.63;;
146;SDS011;45999;48.808;9.182;2022-07-23T14:15:33;5.70;;;5.30;;
146;SDS011;45999;48.808;9.182;2022-07-23T14:18:00;6.80;;;5.78;;
146;SDS011;45999;48.808;9.182;2022-07-23T14:20:26;6.15;;;5.65;;
146;SDS011;45999;48.808;9.182;2022-07-23T14:22:52;6.18;;;5.50;;
146;SDS011;45999;48.808;9.182;2022-07-23T14:25:20;6.50;;;5.90;;
146;SDS011;45999;48.808;9.182;2022-07-23T14:27:47;6.72;;;5.97;;
146;SDS011;45999;48.808;9.182;2022-07-23T14:30:14;6.13;;;5.50;;
146;SDS011;45999;48.808;9.182;2022-07-23T14:32:41;6.35;;;5.75;;
146;SDS011;45999;48.808;9.182;2022-07-23T14:35:07;6.57;;;5.57;;
146;SDS011;45999;48.808;9.182;2022-07-23T14:37:34;6.10;;;5.50;;
146;SDS011;45999;48.808;9.182;2022-07-23T14:40:00;6.03;;;5.47;;
146;SDS011;45999;48.808;9.182;2022-07-23T14:42:27;5.60;;;5.10;;
146;SDS011;45999;48.808;9.182;2022-07-23T14:44:54;5.82;;;5.30;;
146;SDS011;45999;48.808;9.182;2022-07-23T14:47:20;6.00;;;5.40;;
146;SDS011;45999;48.808;9.182;2022-07-23T14:49:46;6.15;;;5.65;;
146;SDS011;45999;48.808;9.182;2022-07-23T14:52:13;5.82;;;5.32;;
146;SDS011;45999;48.808;9.182;2022-07-23T14:54:39;5.32;;;4.93;;
146;SDS011;45999;48.808;9.182;2022-07-23T14:57:06;5.28;;;4.78;;
146;SDS011;45999;48.808;9.182;2022-07-23T14:59:34;6.07;;;5.47;;
146;SDS011;45999;48.808;9.182;2022-07-23T15:02:00;5.68;;;5.28;;
146;SDS011;45999;48.808;9.182;2022-07-23T15:04:27;5.80;;;5.40;;
146;SDS011;45999;48.808;9.182;2022-07-23T15:06:53;6.50;;;5.43;;
146;SDS011;45999;48.808;9.182;2022-07-23T15:09:20;6.18;;;5.57;;
146;SDS011;45999;48.808;9.182;2022-07-23T15:11:46;5.90;;;5.40;;
146;SDS011;45999;48.808;9.182;2022-07-23T15:14:13;5.95;;;5.35;;
146;SDS011;45999;48.808;9.182;2022-07-23T15:16:39;6.68;;;5.80;;
146;SDS011;45999;48.808;9.182;2022-07-23T15:19:06;6.30;;;5.80;;
146;SDS011;45999;48.808;9.182;2022-07-23T15:21:32;6.50;;;6.00;;
146;SDS011;45999;48.808;9.182;2022-07-23T15:23:59;6.40;;;5.80;;
146;SDS011;45999;48.808;9.182;2022-07-23T15:26:26;6.47;;;5.93;;
146;SDS011;45999;48.808;9.182;2022-07-23T15:28:53;6.90;;;5.60;;
146;SDS011;45999;48.808;9.182;2022-07-23T15:31:20;5.82;;;5.40;;
146;SDS011;45999;48.808;9.182;2022-07-23T15:33:48;6.30;;;5.80;;
146;SDS011;45999;48.808;9.182;2022-07-23T15:36:16;9.07;;;6.10;;
146;SDS011;45999;48.808;9.182;2022-07-23T15:38:44;5.95;;;5.45;;
146;SDS011;45999;48.808;9.182;2022-07-23T15:41:10;5.88;;;5.47;;
146;SDS011;45999;48.808;9.182;2022-07-23T15:43:37;5.93;;;5.43;;
146;SDS011;45999;48.808;9.182;2022-07-23T15:46:04;5.97;;;5.40;;
146;SDS011;45999;48.808;9.182;2022-07-23T15:48:31;6.00;;;5.47;;
146;SDS011;45999;48.808;9.182;2022-07-23T15:50:59;6.15;;;5.55;;
146;SDS011;45999;48.808;9.182;2022-07-23T15:53:26;5.88;;;5.30;;
146;SDS011;45999;48.808;9.182;2022-07-23T15:55:52;6.07;;;5.57;;
146;SDS011;45999;48.808;9.182;2022-07-23T15:58:19;6.60;;;5.85;;
146;SDS011;45999;48.808;9.182;2022-07-23T16:00:45;5.88;;;5.35;;
146;SDS011;45999;48.808;9.182;2022-07-23T16:03:12;6.03;;;5.30;;
146;SDS011;45999;48.808;9.182;2022-07-23T16:05:43;5.88;;;5.38;;
146;SDS011;45999;48.808;9.182;2022-07-23T16:08:09;7.05;;;6.45;;
146;SDS011;45999;48.808;9.182;2022-07-23T16:10:36;6.18;;;5.57;;
146;SDS011;45999;48.808;9.182;2022-07-23T16:13:02;5.63;;;5.22;;
146;SDS011;45999;48.808;9.182;2022-07-23T16:15:29;6.45;;;5.85;;